createdAt,value
2019-01-04T00:01:56.106Z,17.37
2019-01-04T00:04:24.362Z,12.20
2019-01-04T00:06:52.636Z,15.37
2019-01-04T00:09:20.888Z,18.13
2019-01-04T00:11:49.164Z,18.47
2019-01-04T00:14:17.424Z,23.33
2019-01-04T00:16:45.671Z,18.17
2019-01-04T00:19:14.255Z,17.70
2019-01-04T00:21:42.569Z,18.77
2019-01-04T00:24:11.101Z,14.70
2019-01-04T00:26:39.355Z,16.30
2019-01-04T00:29:07.647Z,16.27
2019-01-04T00:31:35.902Z,18.07
2019-01-04T00:34:04.232Z,15.07
2019-01-04T00:36:32.487Z,14.00
2019-01-04T00:39:00.839Z,18.27
2019-01-04T00:41:29.083Z,13.80
2019-01-04T00:43:57.362Z,14.83
2019-01-04T00:46:25.618Z,15.37
2019-01-04T00:48:54.147Z,14.83
2019-01-04T00:51:22.400Z,14.23
2019-01-04T00:53:50.916Z,15.83
2019-01-04T00:56:43.354Z,12.80
2019-01-04T00:59:20.623Z,14.30
2019-01-04T01:02:00.832Z,16.53
2019-01-04T01:05:03.597Z,14.33
2019-01-04T01:07:46.932Z,14.23
2019-01-04T01:10:40.641Z,15.63
2019-01-04T01:13:24.022Z,16.23
2019-01-04T01:16:13.576Z,14.03
2019-01-04T01:18:59.992Z,14.03
2019-01-04T01:21:46.374Z,15.60
2019-01-04T01:24:40.351Z,14.23
2019-01-04T01:27:29.455Z,15.30
2019-01-04T01:30:17.448Z,16.13
2019-01-04T01:32:51.849Z,12.77
2019-01-04T01:35:34.993Z,14.63
2019-01-04T01:38:36.514Z,12.90
2019-01-04T01:41:13.739Z,13.20
2019-01-04T01:44:13.579Z,13.27
2019-01-04T01:46:53.878Z,13.00
2019-01-04T01:49:43.278Z,15.23
2019-01-04T01:52:14.773Z,12.90
2019-01-04T01:54:43.313Z,16.77
2019-01-04T01:57:11.554Z,16.57
2019-01-04T01:59:39.838Z,16.00
2019-01-04T02:02:08.090Z,15.27
2019-01-04T02:04:36.345Z,14.47
2019-01-04T02:07:04.624Z,15.30
2019-01-04T02:09:32.970Z,16.00
2019-01-04T02:12:01.207Z,12.03
2019-01-04T02:14:29.456Z,14.00
2019-01-04T02:16:57.739Z,16.10
2019-01-04T02:19:25.985Z,13.03
2019-01-04T02:21:54.257Z,14.60
2019-01-04T02:24:22.501Z,12.33
2019-01-04T02:26:50.772Z,13.43
2019-01-04T02:29:19.015Z,12.50
2019-01-04T02:31:47.311Z,15.57
2019-01-04T02:34:15.568Z,13.57
2019-01-04T02:36:43.846Z,13.63
2019-01-04T02:39:12.101Z,19.90
2019-01-04T02:41:40.358Z,11.83
2019-01-04T02:44:08.859Z,15.77
2019-01-04T02:46:37.127Z,13.90
2019-01-04T02:49:05.377Z,11.47
2019-01-04T02:51:33.654Z,12.53
2019-01-04T02:54:01.916Z,13.40
2019-01-04T02:56:30.200Z,13.97
2019-01-04T02:58:58.521Z,16.17
2019-01-04T03:01:27.064Z,16.33
2019-01-04T03:03:55.558Z,14.27
2019-01-04T03:06:23.837Z,12.80
2019-01-04T03:08:52.108Z,12.20
2019-01-04T03:11:20.441Z,18.07
2019-01-04T03:13:48.688Z,16.33
2019-01-04T03:16:16.963Z,15.17
2019-01-04T03:18:45.231Z,13.27
2019-01-04T03:21:13.499Z,16.20
2019-01-04T03:23:41.751Z,16.93
2019-01-04T03:26:10.271Z,14.97
2019-01-04T03:28:38.515Z,13.17
2019-01-04T03:31:07.044Z,14.37
2019-01-04T03:33:35.362Z,14.07
2019-01-04T03:36:03.640Z,12.40
2019-01-04T03:38:31.908Z,12.00
2019-01-04T03:41:00.246Z,13.93
2019-01-04T03:43:28.512Z,14.27
2019-01-04T03:45:56.780Z,11.70
2019-01-04T03:48:25.038Z,15.27
2019-01-04T03:50:53.304Z,15.67
2019-01-04T03:53:21.574Z,13.00
2019-01-04T03:55:49.823Z,16.23
2019-01-04T03:58:18.078Z,13.23
2019-01-04T04:00:46.328Z,15.50
2019-01-04T04:03:14.630Z,14.83
2019-01-04T04:05:42.912Z,17.37
2019-01-04T04:08:11.179Z,14.27
2019-01-04T04:10:39.521Z,13.40
2019-01-04T04:13:07.778Z,15.03
2019-01-04T04:15:36.023Z,17.37
2019-01-04T04:18:04.311Z,19.07
2019-01-04T04:20:32.561Z,17.40
2019-01-04T04:23:00.823Z,15.30
2019-01-04T04:25:29.071Z,11.17
2019-01-04T04:27:58.731Z,15.50
2019-01-04T04:30:27.064Z,12.87
2019-01-04T04:32:55.660Z,14.63
2019-01-04T04:35:24.174Z,13.20
2019-01-04T04:37:52.453Z,14.23
2019-01-04T04:40:20.704Z,17.23
2019-01-04T04:42:49.270Z,13.77
2019-01-04T04:45:17.596Z,13.97
2019-01-04T04:47:45.951Z,16.67
2019-01-04T04:50:14.207Z,17.87
2019-01-04T04:52:42.472Z,20.37
2019-01-04T04:55:10.720Z,15.47
2019-01-04T04:57:38.995Z,17.93
2019-01-04T05:00:08.346Z,17.57
2019-01-04T05:02:36.640Z,16.13
2019-01-04T05:05:05.114Z,20.57
2019-01-04T05:07:33.372Z,16.60
2019-01-04T05:10:01.639Z,17.77
2019-01-04T05:12:29.877Z,19.37
2019-01-04T05:14:58.141Z,16.43
2019-01-04T05:17:26.398Z,17.83
2019-01-04T05:19:54.658Z,17.53
2019-01-04T05:22:22.919Z,19.73
2019-01-04T05:24:51.173Z,17.10
2019-01-04T05:27:19.678Z,16.80
2019-01-04T05:29:48.018Z,18.27
2019-01-04T05:32:16.260Z,19.03
2019-01-04T05:34:44.540Z,22.67
2019-01-04T05:37:12.793Z,19.37
2019-01-04T05:39:41.056Z,21.23
2019-01-04T05:42:09.321Z,21.33
2019-01-04T05:44:37.661Z,18.77
2019-01-04T05:47:05.920Z,18.20
2019-01-04T05:49:34.196Z,18.60
2019-01-04T05:52:02.452Z,17.93
2019-01-04T05:54:30.726Z,21.90
2019-01-04T05:56:58.976Z,21.77
2019-01-04T05:59:27.260Z,19.37
2019-01-04T06:01:55.503Z,21.50
2019-01-04T06:04:23.772Z,19.23
2019-01-04T06:06:52.275Z,24.00
2019-01-04T06:09:20.543Z,20.97
2019-01-04T06:11:48.799Z,22.13
2019-01-04T06:14:17.066Z,20.60
2019-01-04T06:16:45.582Z,19.33
2019-01-04T06:19:13.864Z,23.63
2019-01-04T06:21:42.103Z,23.70
2019-01-04T06:24:10.640Z,21.83
2019-01-04T06:26:38.905Z,22.13
2019-01-04T06:29:07.167Z,24.40
2019-01-04T06:31:35.432Z,24.17
2019-01-04T06:34:03.716Z,22.13
2019-01-04T06:36:31.964Z,25.40
2019-01-04T06:39:00.224Z,21.80
2019-01-04T06:41:28.498Z,27.07
2019-01-04T06:43:56.733Z,22.00
2019-01-04T06:46:25.015Z,21.60
2019-01-04T06:48:53.337Z,22.03
2019-01-04T06:51:27.563Z,21.77
2019-01-04T06:53:51.570Z,22.43
2019-01-04T06:56:19.843Z,22.63
2019-01-04T06:58:48.088Z,26.50
2019-01-04T07:01:16.366Z,24.97
2019-01-04T07:03:44.699Z,24.83
2019-01-04T07:06:13.052Z,25.57
2019-01-04T07:08:41.307Z,22.27
2019-01-04T07:11:09.613Z,22.23
2019-01-04T07:13:37.854Z,24.77
2019-01-04T07:16:06.381Z,22.37
2019-01-04T07:18:34.637Z,27.23
2019-01-04T07:21:02.932Z,24.60
2019-01-04T07:23:31.189Z,28.03
2019-01-04T07:25:59.739Z,23.80
2019-01-04T07:28:28.247Z,29.33
2019-01-04T07:30:56.526Z,27.50
2019-01-04T07:33:25.032Z,26.13
2019-01-04T07:35:53.334Z,26.10
2019-01-04T07:38:21.584Z,28.67
2019-01-04T07:40:49.977Z,25.77
2019-01-04T07:43:18.307Z,28.60
2019-01-04T07:45:46.577Z,26.93
2019-01-04T07:48:14.848Z,27.07
2019-01-04T07:50:43.105Z,25.83
2019-01-04T07:53:11.362Z,24.77
2019-01-04T07:55:39.892Z,28.87
2019-01-04T07:58:08.185Z,27.40
2019-01-04T08:00:36.439Z,26.93
2019-01-04T08:03:05.605Z,25.33
2019-01-04T08:05:33.856Z,27.87
2019-01-04T08:08:02.399Z,32.37
2019-01-04T08:10:30.662Z,27.67
2019-01-04T08:12:58.944Z,28.27
2019-01-04T08:15:27.237Z,25.83
2019-01-04T08:17:55.599Z,32.10
2019-01-04T08:20:23.847Z,29.70
2019-01-04T08:22:52.122Z,27.87
2019-01-04T08:25:20.372Z,30.47
2019-01-04T08:27:48.908Z,26.87
2019-01-04T08:30:17.175Z,25.63
2019-01-04T08:32:45.735Z,27.53
2019-01-04T08:35:14.073Z,25.43
2019-01-04T08:37:42.343Z,26.77
2019-01-04T08:40:10.591Z,24.33
2019-01-04T08:42:39.123Z,23.47
2019-01-04T08:45:08.002Z,19.70
2019-01-04T08:47:36.267Z,21.97
2019-01-04T08:50:06.993Z,20.97
2019-01-04T08:52:35.243Z,18.17
2019-01-04T08:55:04.183Z,21.03
2019-01-04T08:57:32.445Z,17.13
2019-01-04T09:00:00.711Z,18.23
2019-01-04T09:02:28.968Z,18.30
2019-01-04T09:04:57.246Z,21.67
2019-01-04T09:07:25.504Z,18.00
2019-01-04T09:09:53.847Z,25.57
2019-01-04T09:12:22.164Z,18.23
2019-01-04T09:14:50.452Z,18.13
2019-01-04T09:17:18.702Z,20.53
2019-01-04T09:19:47.014Z,20.50
2019-01-04T09:22:15.851Z,20.20
2019-01-04T09:24:44.142Z,12.30
2019-01-04T09:27:12.400Z,16.03
2019-01-04T09:29:40.688Z,10.87
2019-01-04T09:32:08.965Z,15.00
2019-01-04T09:34:37.226Z,12.83
2019-01-04T09:37:05.485Z,13.57
2019-01-04T09:39:33.753Z,11.57
2019-01-04T09:42:02.845Z,13.23
2019-01-04T09:44:31.121Z,14.13
2019-01-04T09:46:59.469Z,14.23
2019-01-04T09:49:28.019Z,14.07
2019-01-04T09:51:56.265Z,16.40
2019-01-04T09:54:24.536Z,16.87
2019-01-04T09:56:52.797Z,16.80
2019-01-04T09:59:21.070Z,23.13
2019-01-04T10:01:49.353Z,14.20
2019-01-04T10:04:17.598Z,14.77
2019-01-04T10:06:45.881Z,15.57
2019-01-04T10:09:14.152Z,16.23
2019-01-04T10:11:42.422Z,21.47
2019-01-04T10:14:10.670Z,19.10
2019-01-04T10:16:38.922Z,13.97
2019-01-04T10:19:07.175Z,17.90
2019-01-04T10:21:35.448Z,15.83
2019-01-04T10:24:03.698Z,17.20
2019-01-04T10:26:31.971Z,16.87
2019-01-04T10:29:00.239Z,14.53
2019-01-04T10:31:28.494Z,14.23
2019-01-04T10:33:56.734Z,18.53
2019-01-04T10:36:25.009Z,14.50
2019-01-04T10:38:53.356Z,14.10
2019-01-04T10:41:21.662Z,19.73
2019-01-04T10:43:49.941Z,21.93
2019-01-04T10:46:18.273Z,20.83
2019-01-04T10:48:46.525Z,19.97
2019-01-04T10:51:15.066Z,26.50
2019-01-04T10:53:43.318Z,16.27
2019-01-04T10:56:11.601Z,19.47
2019-01-04T10:58:39.916Z,17.10
2019-01-04T11:01:08.323Z,17.13
2019-01-04T11:03:36.583Z,18.93
2019-01-04T11:06:04.874Z,17.97
2019-01-04T11:08:33.189Z,18.37
2019-01-04T11:11:01.731Z,21.10
2019-01-04T11:13:29.973Z,17.57
2019-01-04T11:15:58.260Z,14.97
2019-01-04T11:18:26.513Z,17.70
2019-01-04T11:20:55.876Z,18.00
2019-01-04T11:23:52.675Z,17.03
2019-01-04T11:26:27.165Z,16.20
2019-01-04T11:29:07.568Z,16.10
2019-01-04T11:31:51.087Z,18.57
2019-01-04T11:34:34.827Z,21.53
2019-01-04T11:37:18.433Z,14.90
2019-01-04T11:39:55.512Z,16.87
2019-01-04T11:42:29.750Z,13.20
2019-01-04T11:45:04.316Z,18.70
2019-01-04T11:47:47.635Z,15.23
2019-01-04T11:50:30.826Z,14.27
2019-01-04T11:53:00.424Z,17.57
2019-01-04T11:55:28.763Z,10.93
2019-01-04T11:57:57.036Z,12.57
2019-01-04T12:00:25.298Z,12.00
2019-01-04T12:02:53.546Z,11.03
2019-01-04T12:05:21.811Z,13.17
2019-01-04T12:07:50.086Z,11.03
2019-01-04T12:10:18.609Z,10.07
2019-01-04T12:12:46.887Z,12.07
2019-01-04T12:15:15.149Z,9.77
2019-01-04T12:17:43.413Z,9.97
2019-01-04T12:20:11.655Z,9.53
2019-01-04T12:22:39.922Z,11.10
2019-01-04T12:25:08.455Z,8.20
2019-01-04T12:27:37.623Z,10.57
2019-01-04T12:30:08.224Z,8.70
2019-01-04T12:32:36.597Z,13.63
2019-01-04T12:35:04.914Z,6.53
2019-01-04T12:37:33.269Z,7.07
2019-01-04T12:40:01.536Z,4.83
2019-01-04T12:42:29.796Z,8.93
2019-01-04T12:44:58.317Z,6.63
2019-01-04T12:47:26.854Z,4.83
2019-01-04T12:49:55.106Z,5.60
2019-01-04T12:52:23.366Z,8.40
2019-01-04T12:54:51.631Z,7.37
2019-01-04T12:57:19.983Z,7.77
2019-01-04T12:59:48.509Z,6.93
2019-01-04T13:02:16.759Z,6.90
2019-01-04T13:04:45.329Z,6.60
2019-01-04T13:07:13.585Z,5.37
2019-01-04T13:09:41.955Z,4.93
2019-01-04T13:12:10.205Z,6.23
2019-01-04T13:14:38.501Z,4.33
2019-01-04T13:17:06.766Z,6.50
2019-01-04T13:19:37.092Z,5.70
2019-01-04T13:22:05.339Z,6.27
2019-01-04T13:24:33.888Z,2.80
2019-01-04T13:27:02.412Z,4.70
2019-01-04T13:29:30.779Z,4.10
2019-01-04T13:31:59.034Z,4.93
2019-01-04T13:34:27.366Z,6.50
2019-01-04T13:36:55.633Z,4.30
2019-01-04T13:39:23.937Z,5.57
2019-01-04T13:41:52.229Z,3.03
2019-01-04T13:44:20.716Z,3.77
2019-01-04T13:46:49.286Z,4.07
2019-01-04T13:49:17.593Z,6.13
2019-01-04T13:51:45.950Z,3.87
2019-01-04T13:54:14.462Z,5.60
2019-01-04T13:56:42.808Z,5.70
2019-01-04T13:59:11.058Z,8.13
2019-01-04T14:01:39.328Z,5.77
2019-01-04T14:04:07.575Z,7.20
2019-01-04T14:06:35.827Z,5.33
2019-01-04T14:09:05.720Z,5.90
2019-01-04T14:11:34.005Z,5.10
2019-01-04T14:14:02.253Z,6.47
2019-01-04T14:16:30.515Z,6.30
2019-01-04T14:18:58.767Z,3.50
2019-01-04T14:21:27.052Z,4.50
2019-01-04T14:23:55.338Z,4.67
2019-01-04T14:26:23.607Z,8.07
2019-01-04T14:28:51.898Z,6.37
2019-01-04T14:31:20.163Z,5.17
2019-01-04T14:33:48.747Z,8.00
2019-01-04T14:36:17.035Z,7.03
2019-01-04T14:38:45.554Z,5.27
2019-01-04T14:41:13.801Z,7.00
2019-01-04T14:43:42.089Z,7.13
2019-01-04T14:46:10.428Z,5.63
2019-01-04T14:48:38.713Z,6.43
2019-01-04T14:51:06.948Z,5.30
2019-01-04T14:53:35.499Z,9.23
2019-01-04T14:56:03.784Z,10.50
2019-01-04T14:58:32.322Z,7.03
2019-01-04T15:01:00.568Z,6.60
2019-01-04T15:03:28.823Z,10.00
2019-01-04T15:05:57.160Z,7.50
2019-01-04T15:08:25.698Z,6.27
2019-01-04T15:10:54.033Z,8.80
2019-01-04T15:13:22.307Z,6.87
2019-01-04T15:15:50.564Z,6.80
2019-01-04T15:18:18.834Z,7.97
2019-01-04T15:20:47.086Z,7.57
2019-01-04T15:23:15.490Z,7.03
2019-01-04T15:25:43.759Z,7.97
2019-01-04T15:28:12.317Z,9.10
2019-01-04T15:30:40.568Z,9.07
2019-01-04T15:33:08.834Z,7.77
2019-01-04T15:35:37.072Z,10.43
2019-01-04T15:38:05.350Z,9.07
2019-01-04T15:40:33.918Z,8.03
2019-01-04T15:43:02.154Z,7.80
2019-01-04T15:45:30.424Z,9.77
2019-01-04T15:47:58.712Z,9.43
2019-01-04T15:50:27.046Z,8.60
2019-01-04T15:52:55.570Z,10.50
2019-01-04T15:55:23.846Z,9.47
2019-01-04T15:57:52.086Z,9.73
2019-01-04T16:00:20.362Z,8.07
2019-01-04T16:02:48.620Z,8.83
2019-01-04T16:05:16.886Z,10.03
2019-01-04T16:07:45.171Z,11.03
2019-01-04T16:10:13.434Z,11.70
2019-01-04T16:12:41.794Z,11.30
2019-01-04T16:15:10.624Z,11.53
2019-01-04T16:17:38.884Z,9.10
2019-01-04T16:20:09.715Z,11.20
2019-01-04T16:22:37.980Z,11.07
2019-01-04T16:25:07.278Z,12.13
2019-01-04T16:27:35.525Z,12.67
2019-01-04T16:30:05.436Z,17.17
2019-01-04T16:32:33.696Z,15.77
2019-01-04T16:35:02.235Z,15.13
2019-01-04T16:37:30.494Z,14.77
2019-01-04T16:39:58.847Z,15.43
2019-01-04T16:42:27.176Z,15.50
2019-01-04T16:44:55.464Z,17.07
2019-01-04T16:47:23.815Z,13.10
2019-01-04T16:49:52.192Z,18.67
2019-01-04T16:52:20.471Z,15.53
2019-01-04T16:54:49.021Z,18.67
2019-01-04T16:57:17.360Z,19.00
2019-01-04T16:59:45.686Z,17.03
2019-01-04T17:02:14.005Z,19.17
2019-01-04T17:04:42.351Z,22.00
2019-01-04T17:07:10.939Z,22.43
2019-01-04T17:09:39.258Z,24.53
2019-01-04T17:12:07.541Z,22.37
2019-01-04T17:14:36.986Z,19.50
2019-01-04T17:17:05.348Z,22.77
2019-01-04T17:19:33.867Z,21.67
2019-01-04T17:22:02.269Z,19.70
2019-01-04T17:24:30.591Z,17.20
2019-01-04T17:26:58.924Z,22.83
2019-01-04T17:29:27.165Z,18.57
2019-01-04T17:31:55.481Z,19.47
2019-01-04T17:34:24.045Z,20.30
2019-01-04T17:36:52.567Z,18.20
2019-01-04T17:39:20.837Z,22.00
2019-01-04T17:41:49.119Z,18.77
2019-01-04T17:44:17.632Z,19.30
2019-01-04T17:46:45.901Z,21.70
2019-01-04T17:49:14.528Z,20.30
2019-01-04T17:51:43.063Z,17.83
2019-01-04T17:54:11.306Z,19.43
2019-01-04T17:56:39.576Z,17.80
2019-01-04T17:59:07.865Z,20.43
2019-01-04T18:01:36.308Z,19.53
2019-01-04T18:04:04.638Z,26.40
2019-01-04T18:06:32.917Z,22.47
2019-01-04T18:09:01.561Z,22.67
2019-01-04T18:11:29.852Z,23.37
2019-01-04T18:13:58.107Z,22.17
2019-01-04T18:16:26.659Z,23.20
2019-01-04T18:18:54.942Z,24.90
2019-01-04T18:21:23.276Z,22.47
2019-01-04T18:23:51.597Z,23.17
2019-01-04T18:26:24.382Z,25.73
2019-01-04T18:28:50.152Z,20.47
2019-01-04T18:31:18.972Z,25.57
2019-01-04T18:33:47.231Z,22.40
2019-01-04T18:36:15.486Z,26.47
2019-01-04T18:38:43.773Z,27.27
2019-01-04T18:41:12.040Z,24.03
2019-01-04T18:43:40.314Z,22.20
2019-01-04T18:46:08.653Z,20.70
2019-01-04T18:48:36.933Z,23.63
2019-01-04T18:51:05.166Z,22.10
2019-01-04T18:53:33.440Z,23.93
2019-01-04T18:56:01.770Z,23.93
2019-01-04T18:58:30.136Z,24.13
2019-01-04T19:00:58.470Z,21.43
2019-01-04T19:03:27.009Z,22.97
2019-01-04T19:05:55.269Z,23.37
2019-01-04T19:08:23.576Z,28.17
2019-01-04T19:10:51.912Z,25.77
2019-01-04T19:13:26.558Z,30.27
2019-01-04T19:15:50.500Z,25.03
2019-01-04T19:18:18.775Z,26.77
2019-01-04T19:20:47.301Z,29.43
2019-01-04T19:23:15.576Z,30.87
2019-01-04T19:25:43.848Z,30.67
2019-01-04T19:28:12.213Z,33.30
2019-01-04T19:30:40.469Z,27.90
2019-01-04T19:33:08.749Z,30.40
2019-01-04T19:35:37.093Z,29.73
2019-01-04T19:38:05.363Z,27.53
2019-01-04T19:40:33.642Z,28.57
2019-01-04T19:43:01.903Z,31.77
2019-01-04T19:45:30.154Z,28.30
2019-01-04T19:47:58.430Z,28.93
2019-01-04T19:50:26.671Z,29.30
2019-01-04T19:52:55.196Z,30.23
2019-01-04T19:55:23.452Z,31.40
2019-01-04T19:57:51.967Z,31.67
2019-01-04T20:00:20.237Z,28.03
2019-01-04T20:02:48.751Z,30.30
2019-01-04T20:05:19.782Z,30.77
2019-01-04T20:07:55.530Z,36.23
2019-01-04T20:11:12.328Z,34.23
2019-01-04T20:14:18.711Z,31.93
2019-01-04T20:17:06.905Z,34.30
2019-01-04T20:19:45.710Z,31.17
2019-01-04T20:22:31.653Z,32.07
2019-01-04T20:25:01.562Z,31.97
2019-01-04T20:27:47.850Z,32.37
2019-01-04T20:30:23.589Z,36.00
2019-01-04T20:33:02.464Z,35.50
2019-01-04T20:35:48.932Z,35.90
2019-01-04T20:38:34.880Z,30.93
2019-01-04T20:41:10.541Z,32.37
2019-01-04T20:43:49.624Z,30.07
2019-01-04T20:46:22.474Z,30.50
2019-01-04T20:49:04.555Z,29.20
2019-01-04T20:51:34.450Z,33.07
2019-01-04T20:54:20.386Z,33.07
2019-01-04T20:56:50.549Z,34.47
2019-01-04T20:59:23.503Z,31.77
2019-01-04T21:01:53.425Z,34.97
2019-01-04T21:04:26.251Z,32.17
2019-01-04T21:07:05.428Z,31.27
2019-01-04T21:09:35.453Z,27.93
2019-01-04T21:12:11.108Z,27.80
2019-01-04T21:14:57.494Z,29.30
2019-01-04T21:17:43.513Z,30.80
2019-01-04T21:20:29.460Z,28.47
2019-01-04T21:23:15.755Z,24.00
2019-01-04T21:25:48.315Z,27.97
2019-01-04T21:28:34.226Z,27.63
2019-01-04T21:31:10.312Z,29.47
2019-01-04T21:33:46.188Z,27.70
2019-01-04T21:36:25.043Z,31.20
2019-01-04T21:39:11.551Z,30.43
2019-01-04T21:41:53.720Z,27.50
2019-01-04T21:44:38.469Z,26.13
2019-01-04T21:47:11.529Z,23.73
2019-01-04T21:49:59.622Z,24.57
2019-01-04T21:52:29.818Z,24.33
2019-01-04T21:55:15.810Z,27.03
2019-01-04T21:58:01.951Z,26.40
2019-01-04T22:00:46.994Z,23.20
2019-01-04T22:03:31.853Z,23.33
2019-01-04T22:06:02.070Z,22.97
2019-01-04T22:08:48.093Z,20.17
2019-01-04T22:11:26.933Z,23.37
2019-01-04T22:14:02.513Z,20.20
2019-01-04T22:16:48.492Z,19.73
2019-01-04T22:19:30.468Z,22.00
2019-01-04T22:22:09.190Z,20.10
2019-01-04T22:24:39.243Z,19.93
2019-01-04T22:27:12.409Z,19.83
2019-01-04T22:29:42.344Z,20.43
2019-01-04T22:32:12.370Z,17.77
2019-01-04T22:34:48.348Z,18.63
2019-01-04T22:37:34.324Z,19.10
2019-01-04T22:40:10.323Z,17.43
2019-01-04T22:42:56.494Z,19.87
2019-01-04T22:45:42.660Z,16.40
2019-01-04T22:48:21.685Z,15.97
2019-01-04T22:51:03.475Z,17.33
2019-01-04T22:53:51.557Z,18.03
2019-01-04T22:56:37.663Z,18.00
2019-01-04T22:59:10.587Z,15.03
2019-01-04T23:01:51.761Z,15.17
2019-01-04T23:04:30.392Z,16.83
2019-01-04T23:07:09.488Z,16.17
2019-01-04T23:09:51.286Z,16.10
2019-01-04T23:12:27.332Z,14.37
2019-01-04T23:15:00.266Z,15.27
2019-01-04T23:17:46.412Z,13.80
2019-01-04T23:20:25.245Z,15.17
2019-01-04T23:23:11.214Z,15.03
2019-01-04T23:25:41.120Z,15.40
2019-01-04T23:28:16.769Z,15.37
2019-01-04T23:31:02.959Z,17.57
2019-01-04T23:33:38.567Z,13.13
2019-01-04T23:36:23.383Z,15.87
2019-01-04T23:38:59.368Z,17.17
2019-01-04T23:41:45.556Z,13.13
2019-01-04T23:44:21.702Z,12.17
2019-01-04T23:47:06.769Z,15.50
2019-01-04T23:49:54.836Z,15.27
2019-01-04T23:52:24.719Z,14.17
2019-01-04T23:55:10.994Z,13.97
2019-01-04T23:57:55.511Z,13.47
